Terminal Aerodrome Forecast
Issued by NWS

Home | Current Version | Previous Version | Text Only | Print | Product List | Glossary On
Versions: 1 2 3 4 5 6 7 8 9 10 11 12 13 14 15 16 17 18 19 20 21 22 23 24 25 26 27 28 29 30 31 32 33 34 35
000
FTUS41 KBOX 270016 AAA
TAFFMH
TAF AMD
KFMH 270016Z 2700/2724 21016G27KT 2SM -SHRA BR OVC012 WS020/22055KT
     FM270200 23010G20KT 1SM -SHRA BR OVC003
     FM270500 24009KT 3SM -SHRA BR OVC003
     FM270800 30007KT 2SM -SHRA BR OVC003
     FM271100 34009KT 2SM -SHRA BR OVC007
     FM271500 36009KT 3SM BR OVC010
     FM271700 01008KT P6SM OVC015=

USA.gov is the U.S. government's official web portal to all federal, state and local government web resources and services.